Warning: Javascript must be enabled to use all the features on this page!


Page Loading - Please Wait...

Click to hideNews Bulletins

Peak Streamflow for the Nation

USGS 14046500 JOHN DAY RIVER AT SERVICE CREEK, OR

Wheeler County, Oregon
Hydrologic Unit Code 17070204
Latitude  44°47'38", Longitude 120°00'20" NAD27
Drainage area 5,090  square miles
Gage datum 1,632.42 feet above NGVD29
Output formats
Table
Graph
Tab-separated file
peakfq (watstore) format
Reselect output format
Water
Year
Date Gage
Height
(feet)
Stream-
flow
(cfs)
1926 1926-02-05   7,1307
1930 1930-02-15 8.563,6 3,260
1931 1931-04-01 12.263 14,600
1932 1932-03-19 16.753 28,900
1933 1933-04-28 9.533 8,510
1934 1933-12-27 6.853 4,000
1935 1935-04-16 9.283 8,020
1936 1936-04-18 10.433 10,600
1937 1937-04-15 11.863 14,500
1938 1938-04-19 12.043 14,800
1939 1939-03-24 12.293 15,600
1940 1940-02-29 11.303 12,900
1941 1941-06-08 8.303 6,270
1942 1942-01-27 11.083 12,300
1943 1943-03-28 13.143 16,100
1944 1944-03-10 8.923 7,200
1945 1945-05-05 9.743 8,710
1946 1945-12-29 14.103 18,600
1947 1947-04-20 9.073 7,380
1948 1948-05-22 15.253 23,900
1949 1949-03-19 11.362,3 13,200
1950 1950-03-18 9.583 8,440
1951 1951-02-11 11.593 13,800
1952 1952-03-26 15.503 26,800
1953 1953-04-28 12.583 16,800
1954 1954-04-14 8.933 7,170
1955 1955-05-21 9.173 7,640
1956 1956-05-08 15.103,6 28,100
1957 1957-02-27 10.05 14,200
1958 1958-05-12 11.06 16,900
1959 1958-12-12 7.20 6,600
1960 1960-03-24 8.73 10,300
1961 1961-03-16 6.80 5,900
1962 1962-05-26 8.56 9,900
1963 1963-02-02 9.25 11,600
1964 1964-04-01 8.70 10,200
1965 1964-12-23 17.85 40,200
1966 1966-04-02 6.80 5,540
1967 1967-01-30 9.70 11,200
1968 1968-02-23 7.65 6,700
1969 1969-03-31 10.19 12,600
1970 1970-01-24 14.59 27,100
1971 1971-01-18 12.85 21,000
1972 1972-03-13 14.05 25,200
1973 1973-01-17 7.06 5,610
1974 1974-01-17 13.26 22,400
1975 1975-05-15 10.69 14,100
1976 1976-04-09 9.29 10,200
1977 1977-04-09 6.09 3,860
1978 1978-04-01 11.56 16,600
1979 1979-05-06 11.58 16,700
1980 1980-01-14 8.46 8,380
1981 1981-02-17 10.01 12,000
1982 1982-02-21 14.65 26,900
1983 1983-03-14 12.89 20,800
1984 1984-04-17 11.41 16,400
1985 1985-04-11 10.43 14,300
1986 1986-02-23 13.772 25,400
1987 1987-03-13 9.39 11,300
1988 1988-04-22 7.05 5,780
1989 1989-05-10 12.50 20,900
1990 1990-04-28 7.63 6,980
1991 1991-05-20 13.59 24,200
1992 1991-12-07 6.89 5,370
1993 1993-03-24 13.04 22,300
1994 1994-05-21 8.32 8,520
1995 1995-03-16 9.91 12,600
1996 1996-02-09 14.02 25,800
1997 1997-01-01 16.49 35,200
1998 1998-03-24 10.02 12,900
1999 1999-03-01 10.29 13,700
2000 2000-04-14 9.14 10,600
2001 2001-04-28 7.34 6,540
2002 2002-04-15 9.98 12,800
2003 2003-01-31 8.37 8,630
2004 2004-05-29 9.81 12,300
2005 2005-05-17 10.69 14,800
2006 2006-01-01 10.58 14,500
2007 2007-03-08 7.70 7,210
2008 2008-05-18 11.08 16,000
2009 2009-04-22 10.14 13,300
2010 2010-06-05 12.48 20,800
2011 2011-05-16 15.23 31,800
2012 2012-04-27 10.63 14,700
2013 2013-04-05 7.85 7,750
2014 2014-03-10 12.61 21,100
2015 2014-12-22 8.75 9,600
2016 2016-02-15 10.13 12,500
2017 2017-02-10 12.20 20,100
2018 2018-03-15 8.24 7,880
2019 2019-04-09 16.29 33,600
2020 2020-05-21 13.78 24,200
?
  Peak Gage-Height Qualification Codes.
?
  Peak Streamflow Qualification Codes.